createdAt,value
2022-09-13T00:02:19.664Z,100459.63
2022-09-13T00:04:46.621Z,100466.63
2022-09-13T00:07:13.581Z,100457.41
2022-09-13T00:09:40.630Z,100457.75
2022-09-13T00:12:07.679Z,100462.84
2022-09-13T00:14:34.613Z,100454.31
2022-09-13T00:17:01.623Z,100457.72
2022-09-13T00:19:28.580Z,100465.56
2022-09-13T00:21:55.505Z,100458.06
2022-09-13T00:24:22.385Z,100451.41
2022-09-13T00:26:49.312Z,100449.88
2022-09-13T00:29:16.348Z,100442.03
2022-09-13T00:31:43.373Z,100439.28
2022-09-13T00:34:10.256Z,100430.91
2022-09-13T00:36:37.304Z,100430.25
2022-09-13T00:39:04.203Z,100426.66
2022-09-13T00:41:31.239Z,100428.16
2022-09-13T00:44:01.138Z,100423.59
2022-09-13T00:46:45.969Z,100424.91
2022-09-13T00:49:37.065Z,100420.69
2022-09-13T00:52:09.835Z,100429.00
2022-09-13T00:54:52.548Z,100424.59
2022-09-13T00:57:21.969Z,100405.00
2022-09-13T01:00:12.143Z,100403.78
2022-09-13T01:02:43.501Z,100409.41
2022-09-13T01:05:11.950Z,100395.44
2022-09-13T01:07:39.515Z,100393.41
2022-09-13T01:10:07.794Z,100395.09
2022-09-13T01:13:02.815Z,100382.69
2022-09-13T01:15:29.754Z,100375.34
2022-09-13T01:17:57.027Z,100384.19
2022-09-13T01:20:54.508Z,100389.66
2022-09-13T01:23:47.803Z,100378.06
2022-09-13T01:26:20.404Z,100381.28
2022-09-13T01:29:22.352Z,100373.47
2022-09-13T01:32:07.561Z,100380.78
2022-09-13T01:35:14.593Z,100387.25
2022-09-13T01:37:58.072Z,100393.59
2022-09-13T01:40:39.119Z,100385.56
2022-09-13T01:43:40.021Z,100382.00
2022-09-13T01:46:32.295Z,100395.81
2022-09-13T01:49:12.989Z,100392.22
2022-09-13T01:51:58.499Z,100396.16
2022-09-13T01:54:39.865Z,100408.09
2022-09-13T01:57:21.866Z,100398.38
2022-09-13T01:59:54.140Z,100399.41
2022-09-13T02:02:33.805Z,100396.53
2022-09-13T02:05:07.960Z,100401.31
2022-09-13T02:07:46.826Z,100393.16
2022-09-13T02:10:27.713Z,100401.50
2022-09-13T02:12:58.294Z,100400.66
2022-09-13T02:15:53.323Z,100393.84
2022-09-13T02:18:28.815Z,100387.91
2022-09-13T02:21:03.864Z,100402.72
2022-09-13T02:23:39.337Z,100404.75
2022-09-13T02:26:08.060Z,100406.84
2022-09-13T02:28:44.365Z,100391.34
2022-09-13T02:31:13.194Z,100391.03
2022-09-13T02:33:47.345Z,100403.25
2022-09-13T02:36:26.009Z,100412.63
2022-09-13T02:39:01.114Z,100387.44
2022-09-13T02:42:12.326Z,100380.28
2022-09-13T02:44:49.714Z,100376.03
2022-09-13T02:47:40.956Z,100377.91
2022-09-13T02:50:30.131Z,100376.91
2022-09-13T02:53:44.802Z,100381.81
2022-09-13T02:56:34.368Z,100372.44
2022-09-13T02:59:17.337Z,100380.25
2022-09-13T03:02:04.698Z,100368.03
2022-09-13T03:04:34.413Z,100357.66
2022-09-13T03:07:04.481Z,100352.22
2022-09-13T03:09:32.727Z,100347.28
2022-09-13T03:13:01.322Z,100356.97
2022-09-13T03:15:46.358Z,100365.13
2022-09-13T03:18:32.076Z,100369.75
2022-09-13T03:21:43.293Z,100366.16
2022-09-13T03:24:58.823Z,100363.25
2022-09-13T03:28:21.319Z,100360.19
2022-09-13T03:31:01.221Z,100352.53
2022-09-13T03:34:01.758Z,100360.88
2022-09-13T03:36:44.705Z,100345.25
2022-09-13T03:39:50.582Z,100346.59
2022-09-13T03:42:48.540Z,100354.75
2022-09-13T03:45:19.811Z,100351.03
2022-09-13T03:47:48.846Z,100334.34
2022-09-13T03:50:21.663Z,100334.50
2022-09-13T03:53:01.860Z,100337.22
2022-09-13T03:55:31.774Z,100351.72
2022-09-13T03:57:58.683Z,100359.38
2022-09-13T04:00:25.808Z,100343.53
2022-09-13T04:02:52.817Z,100352.88
2022-09-13T04:05:19.743Z,100354.06
2022-09-13T04:07:46.690Z,100352.53
2022-09-13T04:10:14.264Z,100348.13
2022-09-13T04:12:41.475Z,100352.88
2022-09-13T04:15:09.321Z,100343.53
2022-09-13T04:17:36.363Z,100356.47
2022-09-13T04:20:05.471Z,100339.81
2022-09-13T04:22:33.558Z,100329.25
2022-09-13T04:25:02.561Z,100345.06
2022-09-13T04:27:29.864Z,100340.81
2022-09-13T04:29:56.805Z,100332.66
2022-09-13T04:32:23.772Z,100347.09
2022-09-13T04:34:50.683Z,100357.66
2022-09-13T04:37:17.829Z,100352.34
2022-09-13T04:39:44.781Z,100358.34
2022-09-13T04:42:11.859Z,100343.53
2022-09-13T04:44:39.060Z,100341.31
2022-09-13T04:47:08.126Z,100361.22
2022-09-13T04:49:35.139Z,100365.81
2022-09-13T04:52:02.340Z,100371.59
2022-09-13T04:54:29.247Z,100370.75
2022-09-13T04:56:56.172Z,100364.31
2022-09-13T04:59:23.424Z,100365.97
2022-09-13T05:01:50.356Z,100374.13
2022-09-13T05:04:17.401Z,100362.22
2022-09-13T05:06:44.311Z,100363.44
2022-09-13T05:09:14.614Z,100361.72
2022-09-13T05:11:42.300Z,100352.53
2022-09-13T05:14:12.690Z,100362.59
2022-09-13T05:16:39.907Z,100360.88
2022-09-13T05:19:06.842Z,100356.28
2022-09-13T05:21:33.765Z,100363.63
2022-09-13T05:24:00.947Z,100358.69
2022-09-13T05:26:31.349Z,100354.56
2022-09-13T05:29:02.344Z,100346.91
2022-09-13T05:31:36.954Z,100345.06
2022-09-13T05:34:10.743Z,100360.38
2022-09-13T05:36:38.312Z,100353.75
2022-09-13T05:39:28.995Z,100358.16
2022-09-13T05:41:53.527Z,100359.69
2022-09-13T05:44:20.568Z,100361.59
2022-09-13T05:46:48.653Z,100357.28
2022-09-13T05:49:15.783Z,100346.59
2022-09-13T05:51:43.542Z,100351.84
2022-09-13T05:54:12.838Z,100366.66
2022-09-13T05:56:40.268Z,100354.25
2022-09-13T05:59:08.908Z,100359.34
2022-09-13T06:01:36.689Z,100368.19
2022-09-13T06:04:03.697Z,100357.13
2022-09-13T06:06:30.604Z,100363.41
2022-09-13T06:08:58.138Z,100365.13
2022-09-13T06:11:26.731Z,100360.88
2022-09-13T06:13:54.146Z,100353.53
2022-09-13T06:16:21.790Z,100355.44
2022-09-13T06:18:49.963Z,100341.28
2022-09-13T06:21:22.199Z,100346.56
2022-09-13T06:23:54.051Z,100361.88
2022-09-13T06:26:24.951Z,100360.69
2022-09-13T06:28:55.045Z,100361.53
2022-09-13T06:31:25.191Z,100358.69
2022-09-13T06:33:58.756Z,100356.13
2022-09-13T06:36:26.489Z,100351.31
2022-09-13T06:38:53.406Z,100360.00
2022-09-13T06:41:23.773Z,100358.81
2022-09-13T06:43:58.805Z,100361.19
2022-09-13T06:46:28.871Z,100354.91
2022-09-13T06:48:59.353Z,100360.34
2022-09-13T06:51:27.319Z,100359.47
2022-09-13T06:53:56.691Z,100364.91
2022-09-13T06:56:30.802Z,100364.59
2022-09-13T06:59:07.442Z,100374.28
2022-09-13T07:01:40.700Z,100372.06
2022-09-13T07:04:11.045Z,100380.91
2022-09-13T07:06:47.662Z,100374.44
2022-09-13T07:09:18.922Z,100373.25
2022-09-13T07:11:47.243Z,100368.66
2022-09-13T07:14:17.366Z,100384.50
2022-09-13T07:16:46.091Z,100383.94
2022-09-13T07:19:16.474Z,100372.69
2022-09-13T07:21:44.425Z,100384.28
2022-09-13T07:24:12.301Z,100378.66
2022-09-13T07:26:39.397Z,100374.56
2022-09-13T07:29:09.292Z,100381.53
2022-09-13T07:31:39.854Z,100385.97
2022-09-13T07:34:12.994Z,100381.84
2022-09-13T07:36:39.967Z,100374.53
2022-09-13T07:39:09.871Z,100385.44
2022-09-13T07:41:39.711Z,100383.34
2022-09-13T07:44:07.981Z,100387.63
2022-09-13T07:46:39.904Z,100391.69
2022-09-13T07:49:07.904Z,100394.25
2022-09-13T07:51:39.585Z,100398.31
2022-09-13T07:54:13.175Z,100392.34
2022-09-13T07:56:41.929Z,100396.59
2022-09-13T07:59:14.191Z,100395.22
2022-09-13T08:01:47.559Z,100399.28
2022-09-13T08:04:18.847Z,100409.00
2022-09-13T08:06:46.898Z,100410.38
2022-09-13T08:09:15.565Z,100405.41
2022-09-13T08:11:49.006Z,100410.28
2022-09-13T08:14:18.155Z,100404.78
2022-09-13T08:16:45.217Z,100409.03
2022-09-13T08:19:16.100Z,100411.41
2022-09-13T08:21:44.326Z,100411.03
2022-09-13T08:24:21.253Z,100404.34
2022-09-13T08:26:48.939Z,100413.66
2022-09-13T08:29:16.716Z,100415.22
2022-09-13T08:31:44.229Z,100420.97
2022-09-13T08:34:14.549Z,100410.72
2022-09-13T08:36:42.114Z,100405.25
2022-09-13T08:39:10.424Z,100416.63
2022-09-13T08:41:40.304Z,100419.81
2022-09-13T08:44:33.494Z,100411.97
2022-09-13T08:47:22.094Z,100414.72
2022-09-13T08:49:53.101Z,100404.81
2022-09-13T08:53:05.805Z,100406.66
2022-09-13T08:55:43.708Z,100410.84
2022-09-13T08:58:56.741Z,100404.00
2022-09-13T09:01:36.265Z,100402.47
2022-09-13T09:04:15.092Z,100407.09
2022-09-13T09:06:43.298Z,100413.78
2022-09-13T09:09:21.997Z,100411.41
2022-09-13T09:12:17.232Z,100412.09
2022-09-13T09:14:57.261Z,100421.25
2022-09-13T09:17:31.071Z,100409.75
2022-09-13T09:20:18.943Z,100410.91
2022-09-13T09:22:47.818Z,100411.94
2022-09-13T09:25:14.747Z,100407.03
2022-09-13T09:27:41.754Z,100411.81
2022-09-13T09:30:16.656Z,100416.06
2022-09-13T09:33:01.586Z,100414.88
2022-09-13T09:36:08.938Z,100413.16
2022-09-13T09:38:43.809Z,100405.81
2022-09-13T09:41:29.058Z,100410.38
2022-09-13T09:44:22.371Z,100402.94
2022-09-13T09:47:25.940Z,100406.53
2022-09-13T09:50:16.473Z,100401.06
2022-09-13T09:53:09.846Z,100409.53
2022-09-13T09:55:53.317Z,100396.47
2022-09-13T09:58:36.440Z,100399.41
2022-09-13T10:01:04.013Z,100405.06
2022-09-13T10:03:34.026Z,100409.19
2022-09-13T10:06:14.547Z,100411.28
2022-09-13T10:08:44.237Z,100409.25
2022-09-13T10:11:12.141Z,100407.28
2022-09-13T10:13:59.440Z,100417.75
2022-09-13T10:16:29.816Z,100413.50
2022-09-13T10:19:26.693Z,100413.97
2022-09-13T10:22:06.262Z,100411.72
2022-09-13T10:24:33.331Z,100413.22
2022-09-13T10:27:00.909Z,100413.69
2022-09-13T10:29:29.171Z,100412.47
2022-09-13T10:32:03.640Z,100417.94
2022-09-13T10:34:34.601Z,100411.63
2022-09-13T10:37:11.328Z,100420.88
2022-09-13T10:40:00.360Z,100409.09
2022-09-13T10:42:29.546Z,100419.66
2022-09-13T10:45:05.010Z,100421.91
2022-09-13T10:47:39.153Z,100427.69
2022-09-13T10:50:31.091Z,100416.84
2022-09-13T10:53:00.029Z,100417.41
2022-09-13T10:55:43.952Z,100421.03
2022-09-13T10:58:10.902Z,100437.22
2022-09-13T11:01:16.948Z,100434.19
2022-09-13T11:04:05.011Z,100442.78
2022-09-13T11:06:53.932Z,100447.38
2022-09-13T11:09:46.219Z,100446.94
2022-09-13T11:12:28.416Z,100439.59
2022-09-13T11:15:21.616Z,100432.44
2022-09-13T11:17:58.428Z,100431.63
2022-09-13T11:20:45.556Z,100431.38
2022-09-13T11:23:51.276Z,100429.50
2022-09-13T11:26:38.448Z,100428.88
2022-09-13T11:29:29.992Z,100427.72
2022-09-13T11:32:53.711Z,100434.78
2022-09-13T11:36:00.939Z,100429.44
2022-09-13T11:38:33.530Z,100431.75
2022-09-13T11:41:22.864Z,100442.63
2022-09-13T11:44:17.284Z,100429.63
2022-09-13T11:47:11.550Z,100434.59
2022-09-13T11:50:15.918Z,100422.56
2022-09-13T11:53:22.979Z,100412.31
2022-09-13T11:56:05.178Z,100421.91
2022-09-13T11:59:01.146Z,100423.84
2022-09-13T12:01:42.432Z,100421.25
2022-09-13T12:04:27.761Z,100409.38
2022-09-13T12:07:12.713Z,100404.06
2022-09-13T12:09:55.214Z,100407.09
2022-09-13T12:12:26.430Z,100400.59
2022-09-13T12:15:02.210Z,100395.16
2022-09-13T12:17:48.159Z,100391.47
2022-09-13T12:20:33.444Z,100394.63
2022-09-13T12:23:05.288Z,100384.97
2022-09-13T12:25:46.481Z,100380.38
2022-09-13T12:28:29.366Z,100375.00
2022-09-13T12:31:02.929Z,100366.78
2022-09-13T12:33:30.294Z,100377.81
2022-09-13T12:36:12.385Z,100372.94
2022-09-13T12:39:06.955Z,100373.78
2022-09-13T12:42:02.661Z,100361.50
2022-09-13T12:44:43.362Z,100369.97
2022-09-13T12:48:06.645Z,100364.66
2022-09-13T12:51:11.329Z,100364.47
2022-09-13T12:53:57.382Z,100353.03
2022-09-13T12:57:21.731Z,100357.25
2022-09-13T13:00:11.565Z,100351.75
2022-09-13T13:02:41.284Z,100357.25
2022-09-13T13:05:54.257Z,100356.84
2022-09-13T13:08:21.164Z,100356.03
2022-09-13T13:11:26.211Z,100357.28
2022-09-13T13:14:09.243Z,100352.56
2022-09-13T13:16:48.201Z,100350.66
2022-09-13T13:19:34.037Z,100343.69
2022-09-13T13:22:44.857Z,100341.59
2022-09-13T13:25:38.919Z,100343.47
2022-09-13T13:28:43.145Z,100339.81
2022-09-13T13:31:25.247Z,100336.16
2022-09-13T13:34:13.921Z,100339.34
2022-09-13T13:36:40.985Z,100339.56
2022-09-13T13:39:33.767Z,100333.38
2022-09-13T13:42:27.630Z,100331.69
2022-09-13T13:44:54.384Z,100331.03
2022-09-13T13:47:21.147Z,100327.69
2022-09-13T13:50:07.214Z,100328.56
2022-09-13T13:52:40.752Z,100331.50
2022-09-13T13:55:45.751Z,100337.66
2022-09-13T13:58:38.002Z,100331.09
2022-09-13T14:01:06.455Z,100329.81
2022-09-13T14:04:09.986Z,100324.84
2022-09-13T14:07:06.122Z,100327.19
2022-09-13T14:10:01.258Z,100320.88
2022-09-13T14:12:54.302Z,100318.13
2022-09-13T14:15:51.904Z,100324.31
2022-09-13T14:18:39.377Z,100314.75
2022-09-13T14:21:27.460Z,100319.91
2022-09-13T14:24:24.634Z,100327.50
2022-09-13T14:26:59.018Z,100334.22
2022-09-13T14:29:26.575Z,100331.81
2022-09-13T14:32:04.304Z,100325.84
2022-09-13T14:34:36.300Z,100329.47
2022-09-13T14:37:16.516Z,100316.81
2022-09-13T14:40:18.839Z,100315.03
2022-09-13T14:42:49.048Z,100320.06
2022-09-13T14:45:31.658Z,100318.84
2022-09-13T14:48:15.631Z,100324.84
2022-09-13T14:50:55.295Z,100323.56
2022-09-13T14:53:25.712Z,100329.88
2022-09-13T14:56:13.192Z,100318.16
2022-09-13T14:58:58.595Z,100312.97
2022-09-13T15:01:33.591Z,100322.91
2022-09-13T15:04:04.560Z,100319.09
2022-09-13T15:06:39.046Z,100315.94
2022-09-13T15:09:11.726Z,100311.81
2022-09-13T15:11:52.549Z,100315.28
2022-09-13T15:14:35.054Z,100306.72
2022-09-13T15:17:10.183Z,100310.19
2022-09-13T15:19:51.388Z,100318.09
2022-09-13T15:22:24.735Z,100318.97
2022-09-13T15:24:58.159Z,100324.44
2022-09-13T15:27:31.514Z,100335.25
2022-09-13T15:30:05.875Z,100337.59
2022-09-13T15:32:44.163Z,100334.19
2022-09-13T15:35:29.371Z,100326.16
2022-09-13T15:38:19.743Z,100331.03
2022-09-13T15:41:00.503Z,100323.41
2022-09-13T15:43:28.266Z,100332.31
2022-09-13T15:45:58.371Z,100329.75
2022-09-13T15:48:33.045Z,100329.97
2022-09-13T15:51:11.264Z,100328.50
2022-09-13T15:53:44.593Z,100326.81
2022-09-13T15:56:19.396Z,100325.94
2022-09-13T15:58:47.205Z,100325.53
2022-09-13T16:01:16.197Z,100320.03
2022-09-13T16:03:43.295Z,100324.69
2022-09-13T16:06:10.988Z,100324.47
2022-09-13T16:08:39.069Z,100319.78
2022-09-13T16:11:06.942Z,100333.13
2022-09-13T16:13:34.653Z,100330.19
2022-09-13T16:16:01.964Z,100322.34
2022-09-13T16:18:28.962Z,100317.69
2022-09-13T16:20:55.941Z,100319.63
2022-09-13T16:23:23.058Z,100320.44
2022-09-13T16:25:56.340Z,100328.91
2022-09-13T16:28:25.920Z,100317.50
2022-09-13T16:30:53.911Z,100315.16
2022-09-13T16:33:21.193Z,100316.97
2022-09-13T16:35:48.391Z,100321.19
2022-09-13T16:38:15.735Z,100315.72
2022-09-13T16:40:45.060Z,100316.28
2022-09-13T16:43:14.687Z,100319.00
2022-09-13T16:45:42.964Z,100320.91
2022-09-13T16:48:09.895Z,100318.56
2022-09-13T16:50:40.902Z,100322.75
2022-09-13T16:53:09.319Z,100313.81
2022-09-13T16:55:36.448Z,100319.72
2022-09-13T16:58:03.573Z,100310.81
2022-09-13T17:00:30.549Z,100317.53
2022-09-13T17:02:57.660Z,100309.91
2022-09-13T17:05:25.811Z,100312.59
2022-09-13T17:07:53.179Z,100310.88
2022-09-13T17:10:21.720Z,100324.59
2022-09-13T17:12:49.214Z,100328.34
2022-09-13T17:15:16.572Z,100325.53
2022-09-13T17:17:44.020Z,100326.34
2022-09-13T17:20:13.239Z,100320.38
2022-09-13T17:22:40.529Z,100328.53
2022-09-13T17:25:08.221Z,100329.31
2022-09-13T17:27:35.993Z,100329.88
2022-09-13T17:30:04.970Z,100331.91
2022-09-13T17:32:31.971Z,100325.50
2022-09-13T17:34:59.100Z,100331.38
2022-09-13T17:37:26.050Z,100329.84
2022-09-13T17:39:52.968Z,100327.69
2022-09-13T17:42:23.109Z,100333.94
2022-09-13T17:44:50.687Z,100334.94
2022-09-13T17:47:17.564Z,100341.53
2022-09-13T17:49:45.517Z,100336.19
2022-09-13T17:52:12.540Z,100339.88
2022-09-13T17:54:39.555Z,100352.00
2022-09-13T17:57:06.708Z,100354.59
2022-09-13T17:59:34.275Z,100353.38
2022-09-13T18:02:01.408Z,100361.03
2022-09-13T18:04:28.450Z,100359.44
2022-09-13T18:06:55.964Z,100368.44
2022-09-13T18:09:24.232Z,100368.44
2022-09-13T18:11:51.562Z,100368.84
2022-09-13T18:14:19.603Z,100359.59
2022-09-13T18:16:49.206Z,100381.00
2022-09-13T18:19:16.185Z,100379.66
2022-09-13T18:21:43.536Z,100369.88
2022-09-13T18:24:10.544Z,100375.59
2022-09-13T18:26:38.003Z,100383.50
2022-09-13T18:29:10.405Z,100376.69
2022-09-13T18:31:38.326Z,100386.31
2022-09-13T18:34:10.372Z,100380.94
2022-09-13T18:36:37.921Z,100381.47
2022-09-13T18:39:06.980Z,100373.69
2022-09-13T18:41:36.909Z,100389.28
2022-09-13T18:44:07.174Z,100391.91
2022-09-13T18:46:35.529Z,100392.63
2022-09-13T18:49:04.758Z,100388.06
2022-09-13T18:51:44.386Z,100388.59
2022-09-13T18:54:16.002Z,100390.56
2022-09-13T18:56:46.210Z,100394.16
2022-09-13T18:59:13.635Z,100404.13
2022-09-13T19:01:42.846Z,100396.66
2022-09-13T19:04:20.177Z,100402.63
2022-09-13T19:06:53.422Z,100405.72
2022-09-13T19:09:20.941Z,100407.28
2022-09-13T19:11:51.840Z,100409.50
2022-09-13T19:14:25.395Z,100397.28
2022-09-13T19:16:55.750Z,100415.34
2022-09-13T19:19:23.826Z,100410.56
2022-09-13T19:21:50.853Z,100416.59
2022-09-13T19:24:19.479Z,100409.28
2022-09-13T19:26:50.736Z,100407.41
2022-09-13T19:29:21.209Z,100406.56
2022-09-13T19:31:49.451Z,100408.78
2022-09-13T19:34:20.035Z,100403.53
2022-09-13T19:36:49.502Z,100401.47
2022-09-13T19:39:16.581Z,100397.91
2022-09-13T19:41:43.903Z,100399.13
2022-09-13T19:44:13.019Z,100402.88
2022-09-13T19:46:42.088Z,100412.91
2022-09-13T19:49:14.168Z,100408.84
2022-09-13T19:51:45.465Z,100411.22
2022-09-13T19:54:18.047Z,100389.81
2022-09-13T19:56:45.092Z,100381.47
2022-09-13T19:59:15.692Z,100400.38
2022-09-13T20:01:45.021Z,100406.31
2022-09-13T20:04:15.607Z,100392.88
2022-09-13T20:06:46.989Z,100398.31
2022-09-13T20:09:17.270Z,100397.31
2022-09-13T20:11:45.513Z,100384.00
2022-09-13T20:14:14.962Z,100395.41
2022-09-13T20:16:42.922Z,100401.38
2022-09-13T20:19:39.443Z,100407.16
2022-09-13T20:22:07.424Z,100411.41
2022-09-13T20:24:34.390Z,100400.84
2022-09-13T20:27:01.289Z,100420.75
2022-09-13T20:29:28.165Z,100419.38
2022-09-13T20:31:55.650Z,100414.59
2022-09-13T20:34:22.720Z,100416.28
2022-09-13T20:36:50.058Z,100416.59
2022-09-13T20:39:17.258Z,100414.25
2022-09-13T20:41:45.015Z,100420.84
2022-09-13T20:44:12.211Z,100411.28
2022-09-13T20:46:40.510Z,100413.13
2022-09-13T20:49:09.086Z,100412.47
2022-09-13T20:51:37.180Z,100412.63
2022-09-13T20:54:05.082Z,100412.78
2022-09-13T20:56:34.234Z,100416.00
2022-09-13T20:59:01.949Z,100413.56
2022-09-13T21:01:31.546Z,100417.97
2022-09-13T21:04:00.516Z,100413.00
2022-09-13T21:06:30.429Z,100409.78
2022-09-13T21:09:01.454Z,100383.78
2022-09-13T21:11:35.336Z,100399.38
2022-09-13T21:14:09.741Z,100391.56
2022-09-13T21:16:40.660Z,100397.03
2022-09-13T21:19:09.092Z,100401.44
2022-09-13T21:21:39.337Z,100391.56
2022-09-13T21:24:09.869Z,100400.22
2022-09-13T21:26:42.688Z,100393.75
2022-09-13T21:29:11.680Z,100383.13
2022-09-13T21:31:39.636Z,100398.91
2022-09-13T21:34:15.838Z,100397.03
2022-09-13T21:36:44.345Z,100394.66
2022-09-13T21:39:12.496Z,100384.28
2022-09-13T21:41:39.970Z,100390.72
2022-09-13T21:44:07.277Z,100399.03
2022-09-13T21:46:36.759Z,100390.50
2022-09-13T21:49:07.078Z,100401.22
2022-09-13T21:51:40.929Z,100394.94
2022-09-13T21:54:11.920Z,100390.84
2022-09-13T21:56:42.253Z,100397.28
2022-09-13T21:59:16.712Z,100399.59
2022-09-13T22:01:47.270Z,100398.38
2022-09-13T22:04:22.390Z,100400.00
2022-09-13T22:06:53.787Z,100407.94
2022-09-13T22:09:24.670Z,100395.69
2022-09-13T22:11:51.905Z,100394.69
2022-09-13T22:14:22.205Z,100392.25
2022-09-13T22:16:52.502Z,100374.25
2022-09-13T22:19:23.872Z,100389.44
2022-09-13T22:21:55.568Z,100394.66
2022-09-13T22:24:25.658Z,100387.44
2022-09-13T22:26:56.623Z,100389.75
2022-09-13T22:29:23.957Z,100380.25
2022-09-13T22:31:52.266Z,100382.09
2022-09-13T22:34:23.640Z,100369.31
2022-09-13T22:36:50.642Z,100368.25
2022-09-13T22:39:18.050Z,100371.56
2022-09-13T22:41:45.450Z,100372.88
2022-09-13T22:44:13.169Z,100381.19
2022-09-13T22:46:43.809Z,100370.25
2022-09-13T22:49:18.235Z,100376.69
2022-09-13T22:51:46.963Z,100375.97
2022-09-13T22:54:15.892Z,100371.56
2022-09-13T22:56:43.591Z,100363.75
2022-09-13T22:59:17.049Z,100365.44
2022-09-13T23:01:44.637Z,100366.47
2022-09-13T23:04:12.326Z,100362.19
2022-09-13T23:06:39.815Z,100366.03
2022-09-13T23:09:08.628Z,100365.84
2022-09-13T23:11:39.428Z,100363.03
2022-09-13T23:14:13.600Z,100363.16
2022-09-13T23:16:46.946Z,100359.22
2022-09-13T23:19:14.777Z,100360.34
2022-09-13T23:21:43.082Z,100361.50
2022-09-13T23:24:17.142Z,100353.84
2022-09-13T23:26:45.224Z,100357.00
2022-09-13T23:29:16.166Z,100347.34
2022-09-13T23:31:43.965Z,100341.38
2022-09-13T23:34:12.453Z,100349.13
2022-09-13T23:36:41.467Z,100335.16
2022-09-13T23:39:17.725Z,100337.31
2022-09-13T23:41:47.201Z,100338.63
2022-09-13T23:44:15.133Z,100342.03
2022-09-13T23:46:42.679Z,100341.34
2022-09-13T23:49:09.755Z,100341.63
2022-09-13T23:51:36.918Z,100336.28
2022-09-13T23:54:03.927Z,100341.16
2022-09-13T23:56:32.113Z,100339.72
2022-09-13T23:59:00.851Z,100336.19
